Time;durP1;ratioP1;P1;durP2;ratioP2;P2;SDS_P1;SDS_P2;PMS_P1;PMS_P2;Temp;Humidity;BMP_temperature;BMP_pressure;BME280_temperature;BME280_humidity;BME280_pressure;Samples;Min_cycle;Max_cycle;Signal;HPM_P1;HPM_P2
2023/12/06 15:22:59;;;;;;;1.00;1.00;;;;;;;6.78;37.79;92047.13;5075338;28;20361;-79
2023/12/06 15:25:24;;;;;;;0.90;0.90;;;;;;;6.68;39.42;92049.81;5086568;28;20040;-78
2023/12/06 15:27:50;;;;;;;2.80;1.92;;;;;;;6.56;41.17;92052.00;5072665;28;20037;-78
2023/12/06 15:30:16;;;;;;;1.80;1.38;;;;;;;6.42;41.59;92060.41;5054006;28;20051;-78
2023/12/06 15:32:43;;;;;;;1.00;1.00;;;;;;;6.39;37.59;92060.91;5060495;28;20043;-78
2023/12/06 15:35:09;;;;;;;2.50;0.93;;;;;;;6.42;37.88;92057.81;5054053;28;20069;-77
2023/12/06 15:37:35;;;;;;;1.00;1.00;;;;;;;6.28;39.02;92063.84;5053926;28;20110;-78
2023/12/06 15:40:00;;;;;;;1.10;1.10;;;;;;;6.17;38.76;92058.75;5053773;28;20520;-78
2023/12/06 15:42:26;;;;;;;1.38;1.20;;;;;;;6.13;38.94;92064.75;5058521;28;20029;-79
2023/12/06 15:44:51;;;;;;;0.90;0.90;;;;;;;6.01;39.39;92068.44;5050789;28;20128;-78
2023/12/06 15:47:17;;;;;;;1.20;1.10;;;;;;;5.86;39.60;92070.31;5069120;28;20496;-78
2023/12/06 15:49:42;;;;;;;0.90;0.90;;;;;;;5.88;39.43;92076.78;5055658;28;20120;-79
2023/12/06 15:52:08;;;;;;;2.80;1.38;;;;;;;5.85;39.38;92072.09;5063326;28;20016;-79
2023/12/06 15:54:34;;;;;;;1.65;1.20;;;;;;;5.74;39.82;92075.78;5054103;28;20117;-79
2023/12/06 15:56:59;;;;;;;5.15;1.90;;;;;;;5.68;40.71;92085.44;5052336;28;20044;-79
2023/12/06 15:59:25;;;;;;;1.10;0.93;;;;;;;5.56;39.88;92083.13;5054814;28;20025;-78
2023/12/06 16:01:50;;;;;;;1.45;0.90;;;;;;;5.42;40.29;92084.72;5050108;28;20025;-79
2023/12/06 16:04:16;;;;;;;0.98;0.82;;;;;;;5.32;41.39;92092.53;5052223;28;20040;-79
2023/12/06 16:06:42;;;;;;;0.77;0.77;;;;;;;5.28;40.16;92092.28;5057946;28;20093;-79
2023/12/06 16:09:08;;;;;;;0.85;0.85;;;;;;;5.29;41.14;92104.22;5055173;28;20044;-79
2023/12/06 16:11:33;;;;;;;0.93;0.93;;;;;;;5.21;40.62;92105.53;5057531;28;20033;-78
2023/12/06 16:13:59;;;;;;;0.70;0.70;;;;;;;5.19;40.17;92104.22;5057348;28;20041;-79
2023/12/06 16:16:25;;;;;;;1.20;1.10;;;;;;;5.12;41.09;92112.28;5052931;28;20037;-78
2023/12/06 16:18:50;;;;;;;0.93;0.93;;;;;;;5.04;40.76;92112.03;5059943;28;20056;-78
2023/12/06 16:21:16;;;;;;;0.80;0.80;;;;;;;4.99;40.79;92116.19;5056042;28;20488;-78
2023/12/06 16:23:42;;;;;;;0.98;0.93;;;;;;;5.07;41.59;92119.31;5058099;28;20215;-78
2023/12/06 16:26:07;;;;;;;0.90;0.90;;;;;;;4.93;41.84;92116.44;5061412;28;20029;-78
2023/12/06 16:28:33;;;;;;;0.90;0.90;;;;;;;4.82;42.09;92122.66;5053247;28;20037;-78
2023/12/06 16:30:59;;;;;;;0.80;0.80;;;;;;;4.85;41.33;92119.56;5055367;28;20024;-77
2023/12/06 16:33:24;;;;;;;0.88;0.88;;;;;;;4.77;41.91;92126.84;5038424;28;20120;-78
2023/12/06 16:35:50;;;;;;;0.88;0.88;;;;;;;4.81;41.56;92132.25;5036676;28;20025;-79
2023/12/06 16:38:15;;;;;;;0.88;0.88;;;;;;;4.74;42.23;92134.34;5029911;28;20073;-78
2023/12/06 16:40:41;;;;;;;0.80;0.80;;;;;;;4.68;41.90;92138.72;5041861;28;20025;-78
2023/12/06 16:43:08;;;;;;;1.17;1.08;;;;;;;4.63;41.95;92138.72;5028225;28;20083;-78
2023/12/06 16:45:34;;;;;;;1.30;1.10;;;;;;;4.54;42.43;92145.47;5038696;28;20409;-77
2023/12/06 16:48:00;;;;;;;1.55;1.27;;;;;;;4.47;42.94;92144.94;5042945;28;20041;-79
2023/12/06 16:50:26;;;;;;;1.40;1.20;;;;;;;4.45;43.20;92152.19;5031244;28;20112;-78
2023/12/06 16:52:51;;;;;;;1.10;1.10;;;;;;;4.44;43.55;92155.81;5039097;28;20077;-79
2023/12/06 16:55:17;;;;;;;1.23;1.10;;;;;;;4.41;43.63;92145.94;5031878;28;20052;-77
2023/12/06 16:57:43;;;;;;;0.93;0.93;;;;;;;4.40;43.06;92162.56;5034003;28;20058;-77
2023/12/06 17:00:11;;;;;;;0.90;0.90;;;;;;;4.36;42.58;92154.50;5026504;28;20141;-79
2023/12/06 17:02:43;;;;;;;1.13;1.00;;;;;;;4.37;43.35;92161.25;5035589;28;20037;-80
2023/12/06 17:05:09;;;;;;;1.20;1.10;;;;;;;4.24;43.92;92167.69;5036108;28;20144;-80
2023/12/06 17:07:35;;;;;;;0.75;0.75;;;;;;;4.18;43.74;92158.31;5042895;28;20496;-80
2023/12/06 17:10:02;;;;;;;0.90;0.90;;;;;;;4.22;43.28;92171.56;5034987;28;20352;-80
2023/12/06 17:12:28;;;;;;;1.00;0.90;;;;;;;4.18;43.14;92164.28;5036903;28;20018;-79
2023/12/06 17:14:53;;;;;;;1.10;1.00;;;;;;;4.30;42.84;92176.25;5046129;28;20103;-78
2023/12/06 17:17:20;;;;;;;1.23;1.10;;;;;;;4.18;43.33;92173.88;5039602;28;20060;-79
2023/12/06 17:19:45;;;;;;;1.00;1.00;;;;;;;4.20;43.55;92171.81;5034521;28;20029;-83
2023/12/06 17:22:11;;;;;;;1.30;1.10;;;;;;;4.09;44.23;92185.75;5037509;28;20041;-81
2023/12/06 17:24:36;;;;;;;0.93;0.90;;;;;;;4.11;43.64;92183.69;5044103;28;20445;-80
2023/12/06 17:27:02;;;;;;;1.00;1.00;;;;;;;4.09;43.86;92190.94;5046363;28;20056;-80
2023/12/06 17:29:27;;;;;;;0.82;0.82;;;;;;;4.06;43.72;92196.63;5035054;28;20671;-80
2023/12/06 17:31:53;;;;;;;2.30;1.50;;;;;;;3.99;43.97;92196.09;5048597;28;20516;-79
2023/12/06 17:34:22;;;;;;;2.22;1.55;;;;;;;3.92;44.28;92212.63;5033530;28;20132;-80
2023/12/06 17:36:48;;;;;;;0.82;0.82;;;;;;;3.84;44.64;92213.09;5036402;28;20117;-81
2023/12/06 17:39:13;;;;;;;0.98;0.98;;;;;;;3.82;45.21;92222.91;5037295;28;20057;-77
2023/12/06 17:41:39;;;;;;;0.90;0.90;;;;;;;3.74;45.17;92216.41;5034916;28;20025;-79
2023/12/06 17:44:05;;;;;;;0.82;0.82;;;;;;;3.75;45.16;92214.59;5029327;28;20072;-79
2023/12/06 17:46:30;;;;;;;1.30;0.90;;;;;;;3.67;45.58;92215.06;5033275;28;20044;-79
2023/12/06 17:48:56;;;;;;;0.90;0.90;;;;;;;3.63;45.33;92208.84;5032909;28;20424;-81
2023/12/06 17:51:21;;;;;;;1.35;1.15;;;;;;;3.58;46.12;92212.19;5036075;28;20034;-79
2023/12/06 17:53:47;;;;;;;1.30;1.20;;;;;;;3.58;46.40;92227.72;5030535;28;20045;-79
2023/12/06 17:56:13;;;;;;;1.25;0.93;;;;;;;3.53;46.64;92235.44;5044382;28;20067;-77
2023/12/06 17:58:39;;;;;;;1.00;1.00;;;;;;;3.44;46.79;92222.16;5034918;28;20029;-80
2023/12/06 18:01:04;;;;;;;0.90;0.90;;;;;;;3.33;47.00;92215.34;5038108;28;20048;-79
2023/12/06 18:03:30;;;;;;;1.00;1.00;;;;;;;3.34;46.88;92222.09;5038725;28;20073;-80
2023/12/06 18:05:56;;;;;;;1.00;1.00;;;;;;;3.30;47.55;92228.81;5015230;28;20042;-80
2023/12/06 18:08:21;;;;;;;1.08;1.05;;;;;;;3.37;47.20;92237.13;5032798;28;20104;-79
2023/12/06 18:10:47;;;;;;;0.80;0.80;;;;;;;3.36;47.04;92235.59;5031622;28;20068;-80
2023/12/06 18:13:12;;;;;;;0.80;0.80;;;;;;;3.28;47.26;92238.63;5027982;28;20038;-80
2023/12/06 18:15:38;;;;;;;1.10;1.00;;;;;;;3.31;47.00;92238.91;5032139;28;20513;-79
2023/12/06 18:18:04;;;;;;;1.30;1.20;;;;;;;3.29;47.28;92240.19;5030227;28;20034;-80
2023/12/06 18:20:29;;;;;;;1.15;1.05;;;;;;;3.26;47.13;92240.66;5047859;28;20068;-79
2023/12/06 18:22:55;;;;;;;2.75;1.70;;;;;;;3.20;47.45;92236.47;5033885;28;20045;-79
2023/12/06 18:25:20;;;;;;;2.40;1.50;;;;;;;3.18;47.92;92246.31;5039330;28;20053;-78
2023/12/06 18:27:46;;;;;;;1.35;1.20;;;;;;;3.16;47.70;92249.13;5034772;28;20067;-80
2023/12/06 18:30:12;;;;;;;2.80;1.85;;;;;;;3.16;48.02;92256.13;5030124;28;20129;-79
2023/12/06 18:32:50;;;;;;;2.25;1.50;;;;;;;3.07;48.14;92256.56;5028685;28;20039;-78
2023/12/06 18:35:15;;;;;;;1.02;1.00;;;;;;;3.07;47.75;92253.97;5036879;28;20065;-78
2023/12/06 18:37:41;;;;;;;1.00;1.00;;;;;;;3.09;47.47;92264.06;5033489;28;20560;-76
2023/12/06 18:40:07;;;;;;;1.05;0.98;;;;;;;3.06;48.13;92272.31;5033089;28;20048;-78
2023/12/06 18:42:32;;;;;;;1.98;1.10;;;;;;;2.99;48.29;92264.75;5034126;28;20413;-79
2023/12/06 18:44:58;;;;;;;0.90;0.90;;;;;;;3.00;47.98;92265.53;5029777;28;20072;-78
2023/12/06 18:47:23;;;;;;;1.20;1.10;;;;;;;2.98;48.50;92270.94;5039231;28;20044;-80
2023/12/06 18:49:49;;;;;;;1.20;1.10;;;;;;;2.97;47.81;92269.38;5037382;28;20041;-81
2023/12/06 18:52:17;;;;;;;1.10;1.05;;;;;;;2.96;48.04;92272.22;5038250;28;20432;-80
2023/12/06 18:54:45;;;;;;;1.15;1.05;;;;;;;2.98;47.87;92273.53;5040580;28;20045;-81
2023/12/06 18:57:11;;;;;;;1.33;1.23;;;;;;;2.98;47.33;92263.19;5041225;28;20535;-81
2023/12/06 18:59:37;;;;;;;1.20;1.10;;;;;;;3.00;47.72;92271.50;5039396;28;20049;-79
2023/12/06 19:02:02;;;;;;;1.67;1.20;;;;;;;2.96;47.97;92270.41;5031301;28;20052;-80
2023/12/06 19:04:28;;;;;;;1.20;1.10;;;;;;;2.98;47.87;92270.94;5030343;28;20041;-80
2023/12/06 19:06:54;;;;;;;0.98;0.98;;;;;;;2.98;47.85;92281.28;5040539;28;20045;-80
2023/12/06 19:09:19;;;;;;;1.20;1.10;;;;;;;3.04;47.74;92277.75;5039341;28;20064;-80
2023/12/06 19:11:45;;;;;;;1.30;1.20;;;;;;;2.99;47.93;92285.44;5039072;28;20093;-80
2023/12/06 19:14:10;;;;;;;1.20;1.10;;;;;;;3.01;48.24;92280.78;5042967;28;20032;-80
2023/12/06 19:16:36;;;;;;;0.90;0.90;;;;;;;2.94;48.21;92272.47;5039586;28;20076;-81
2023/12/06 19:19:02;;;;;;;1.77;1.38;;;;;;;2.96;47.93;92283.34;5023214;28;20097;-79
2023/12/06 19:21:29;;;;;;;1.52;1.20;;;;;;;2.97;47.53;92286.72;5033833;28;20061;-80
2023/12/06 19:23:55;;;;;;;1.30;1.20;;;;;;;2.95;47.57;92270.66;5032206;28;20044;-80
2023/12/06 19:26:20;;;;;;;1.48;1.30;;;;;;;2.94;47.82;92280.22;5038438;28;20037;-80
2023/12/06 19:28:46;;;;;;;0.90;0.90;;;;;;;2.90;48.07;92276.56;5036378;28;20030;-81
2023/12/06 19:31:12;;;;;;;1.02;1.00;;;;;;;2.94;47.79;92279.44;5031259;28;20033;-80
2023/12/06 19:33:37;;;;;;;0.85;0.85;;;;;;;2.89;48.53;92277.59;5038784;28;20116;-80
2023/12/06 19:36:04;;;;;;;0.88;0.88;;;;;;;2.86;48.39;92278.06;5038130;28;20029;-79
2023/12/06 19:38:30;;;;;;;1.50;1.02;;;;;;;2.85;48.59;92281.69;5030313;28;20041;-80
2023/12/06 19:40:56;;;;;;;0.80;0.80;;;;;;;2.85;48.21;92281.69;5029205;28;20034;-80
2023/12/06 19:43:21;;;;;;;1.00;1.00;;;;;;;2.84;48.13;92280.13;5044854;28;20044;-80
2023/12/06 19:45:47;;;;;;;0.98;0.98;;;;;;;2.85;48.16;92271.34;5032233;28;20042;-81
2023/12/06 19:48:14;;;;;;;0.93;0.93;;;;;;;2.85;48.51;92282.47;5028785;28;20030;-81
2023/12/06 19:50:40;;;;;;;0.90;0.90;;;;;;;2.88;48.03;92286.34;5037961;28;20033;-80
2023/12/06 19:53:06;;;;;;;0.73;0.73;;;;;;;2.85;47.81;92284.25;5036424;28;20079;-81
2023/12/06 19:55:31;;;;;;;0.82;0.82;;;;;;;2.83;48.05;92281.13;5036919;28;20536;-79
2023/12/06 19:57:57;;;;;;;1.02;0.90;;;;;;;2.89;48.06;92285.34;5037733;28;20041;-80
2023/12/06 20:00:23;;;;;;;1.02;1.00;;;;;;;2.86;48.27;92285.81;5038678;28;20096;-81
2023/12/06 20:02:48;;;;;;;1.00;1.00;;;;;;;2.88;47.81;92282.00;5032525;28;20030;-80
2023/12/06 20:05:14;;;;;;;1.10;1.00;;;;;;;2.93;47.62;92289.00;5029507;28;20038;-81
2023/12/06 20:07:43;;;;;;;1.35;1.05;;;;;;;2.92;47.86;92284.84;5029921;28;20034;-80
2023/12/06 20:10:11;;;;;;;0.82;0.82;;;;;;;2.91;48.11;92285.88;5042132;28;20477;-80
2023/12/06 20:12:37;;;;;;;1.10;1.00;;;;;;;2.93;46.93;92299.34;5040811;28;20025;-83
2023/12/06 20:15:03;;;;;;;0.90;0.90;;;;;;;2.94;47.37;92300.13;5039754;28;20463;-80
2023/12/06 20:17:29;;;;;;;0.80;0.80;;;;;;;2.90;47.98;92298.03;5046435;28;20026;-80
2023/12/06 20:19:54;;;;;;;0.80;0.80;;;;;;;2.89;47.82;92300.84;5038432;28;20044;-79
2023/12/06 20:22:20;;;;;;;1.00;0.98;;;;;;;2.83;48.49;92301.81;5038439;28;20382;-80
2023/12/06 20:24:46;;;;;;;1.20;1.10;;;;;;;2.77;49.29;92308.75;5041005;28;20265;-80
2023/12/06 20:27:12;;;;;;;0.90;0.90;;;;;;;2.79;48.67;92300.75;5039375;28;20034;-81
2023/12/06 20:29:38;;;;;;;1.20;1.10;;;;;;;2.77;49.10;92310.53;5033894;28;20091;-81
2023/12/06 20:32:03;;;;;;;0.80;0.80;;;;;;;2.67;49.02;92301.66;5059103;28;20059;-80
2023/12/06 20:34:29;;;;;;;0.95;0.95;;;;;;;2.70;49.43;92308.94;5042098;28;20044;-80
2023/12/06 20:36:54;;;;;;;1.00;1.00;;;;;;;2.73;49.25;92309.47;5038717;28;20051;-81
2023/12/06 20:39:22;;;;;;;0.60;0.60;;;;;;;2.70;49.41;92314.13;5033409;28;20042;-82
2023/12/06 20:41:48;;;;;;;0.90;0.90;;;;;;;2.65;49.66;92308.88;5025984;28;20038;-81
2023/12/06 20:44:14;;;;;;;0.70;0.70;;;;;;;2.66;49.17;92317.41;5042206;28;20034;-82
2023/12/06 20:46:39;;;;;;;1.00;1.00;;;;;;;2.65;49.28;92314.03;5039418;28;20048;-82
2023/12/06 20:49:06;;;;;;;0.77;0.77;;;;;;;2.60;49.83;92318.38;5046700;28;20041;-82
2023/12/06 20:51:31;;;;;;;0.80;0.80;;;;;;;2.60;49.53;92332.06;5043487;28;20088;-81
2023/12/06 20:53:58;;;;;;;0.90;0.90;;;;;;;2.59;49.05;92325.34;5040993;28;20037;-79
2023/12/06 20:56:23;;;;;;;0.80;0.80;;;;;;;2.56;49.39;92325.03;5039099;28;20030;-80
2023/12/06 20:58:50;;;;;;;0.90;0.90;;;;;;;2.60;48.88;92332.06;5045662;28;20260;-81
2023/12/06 21:01:17;;;;;;;0.80;0.80;;;;;;;2.62;48.98;92329.25;5043711;28;20034;-82
2023/12/06 21:03:42;;;;;;;0.90;0.90;;;;;;;2.59;49.55;92338.28;5064345;28;20125;-81
2023/12/06 21:06:09;;;;;;;0.90;0.90;;;;;;;2.60;49.09;92334.66;5052739;28;20085;-81
2023/12/06 21:08:36;;;;;;;0.90;0.90;;;;;;;2.63;49.21;92335.97;5039869;28;20097;-81
2023/12/06 21:11:01;;;;;;;0.85;0.85;;;;;;;2.64;48.93;92332.38;5059786;28;20033;-81
2023/12/06 21:13:27;;;;;;;0.85;0.85;;;;;;;2.66;48.61;92336.28;5063723;28;20093;-81
2023/12/06 21:15:52;;;;;;;0.93;0.93;;;;;;;2.64;48.75;92342.72;5063169;28;20033;-82
2023/12/06 21:18:18;;;;;;;0.77;0.77;;;;;;;2.61;49.01;92346.56;5061480;28;20372;-82
2023/12/06 21:20:45;;;;;;;0.88;0.88;;;;;;;2.61;48.94;92338.03;5045487;28;20037;-81
2023/12/06 21:23:10;;;;;;;1.13;1.00;;;;;;;2.57;48.95;92348.06;5050896;28;20055;-81
2023/12/06 21:25:36;;;;;;;0.85;0.85;;;;;;;2.56;48.38;92332.78;5052787;28;20037;-79
2023/12/06 21:28:02;;;;;;;0.80;0.80;;;;;;;2.47;48.89;92324.69;5043591;28;20067;-80
2023/12/06 21:30:28;;;;;;;1.00;1.00;;;;;;;2.49;49.11;92346.66;5047062;28;20034;-80
2023/12/06 21:32:53;;;;;;;0.85;0.85;;;;;;;2.44;49.43;92335.50;5037906;28;20115;-81
2023/12/06 21:35:19;;;;;;;0.90;0.90;;;;;;;2.43;49.60;92332.16;5038861;28;20084;-79
2023/12/06 21:37:44;;;;;;;0.90;0.90;;;;;;;2.44;48.86;92335.50;5032699;28;20041;-78
2023/12/06 21:40:10;;;;;;;0.75;0.75;;;;;;;2.37;49.78;92333.09;5031372;28;20030;-79
2023/12/06 21:42:36;;;;;;;0.82;0.82;;;;;;;2.33;49.85;92336.41;5034835;28;20032;-77
2023/12/06 21:45:03;;;;;;;0.82;0.82;;;;;;;2.27;49.77;92333.75;5026330;28;20105;-78
2023/12/06 21:47:28;;;;;;;1.08;1.00;;;;;;;2.23;49.92;92343.00;5023423;28;20056;-78
2023/12/06 21:49:54;;;;;;;0.80;0.80;;;;;;;2.22;49.81;92341.41;5031731;28;20041;-78
2023/12/06 21:52:19;;;;;;;0.70;0.70;;;;;;;2.24;49.67;92329.03;5031291;28;20107;-77
2023/12/06 21:54:45;;;;;;;0.93;0.93;;;;;;;2.27;49.26;92341.50;5040251;28;20037;-78
2023/12/06 21:57:11;;;;;;;0.93;0.90;;;;;;;2.27;48.91;92338.91;5035877;28;20095;-78
2023/12/06 21:59:37;;;;;;;0.90;0.90;;;;;;;2.23;48.96;92340.41;5036392;28;20057;-77
2023/12/06 22:02:02;;;;;;;0.90;0.90;;;;;;;2.23;48.82;92332.66;5032791;28;20512;-78
2023/12/06 22:04:28;;;;;;;0.77;0.77;;;;;;;2.27;48.60;92335.53;5028494;28;20038;-78
2023/12/06 22:06:53;;;;;;;0.82;0.82;;;;;;;2.32;47.78;92337.41;5034081;28;20049;-78
2023/12/06 22:09:19;;;;;;;1.00;1.00;;;;;;;2.25;47.76;92342.72;5030827;28;20034;-78
2023/12/06 22:11:45;;;;;;;0.98;0.98;;;;;;;2.30;48.07;92348.00;5024971;28;20045;-78
2023/12/06 22:14:11;;;;;;;0.75;0.75;;;;;;;2.29;48.12;92341.25;5038168;28;20076;-77
2023/12/06 22:16:37;;;;;;;1.77;0.90;;;;;;;2.32;47.63;92350.31;5033877;28;20049;-77
2023/12/06 22:19:02;;;;;;;0.70;0.70;;;;;;;2.29;47.67;92349.78;5038338;28;20037;-78
2023/12/06 22:21:28;;;;;;;0.70;0.70;;;;;;;2.24;47.90;92344.53;5040432;28;20124;-78
2023/12/06 22:23:53;;;;;;;0.80;0.80;;;;;;;2.24;47.77;92347.13;5040136;28;20040;-78
